createdAt,value
2018-09-01T00:00:23.802Z,1018.01
2018-09-01T00:02:16.600Z,1018.04
2018-09-01T00:03:16.511Z,1018.03
2018-09-01T00:05:09.319Z,1018.02
2018-09-01T00:06:09.229Z,1018.01
2018-09-01T00:08:01.203Z,1018.01
2018-09-01T00:09:01.130Z,1018.03
2018-09-01T00:10:53.948Z,1018.02
2018-09-01T00:11:53.856Z,1018.04
2018-09-01T00:13:46.634Z,1018.04
2018-09-01T00:14:46.564Z,1018.03
2018-09-01T00:16:38.470Z,1018.04
2018-09-01T00:17:38.385Z,1018.00
2018-09-01T00:19:31.177Z,1017.95
2018-09-01T00:20:31.074Z,1017.96
2018-09-01T00:22:23.860Z,1017.97
2018-09-01T00:23:23.787Z,1017.99
2018-09-01T00:25:16.542Z,1017.93
2018-09-01T00:26:16.484Z,1017.94
2018-09-01T00:28:09.257Z,1017.92
2018-09-01T00:29:09.185Z,1017.95
2018-09-01T00:31:01.964Z,1018.01
2018-09-01T00:32:01.887Z,1017.96
2018-09-01T00:33:54.647Z,1017.93
2018-09-01T00:34:54.588Z,1017.94
2018-09-01T00:36:47.363Z,1017.93
2018-09-01T00:37:47.281Z,1017.95
2018-09-01T00:39:39.046Z,1017.92
2018-09-01T00:40:38.985Z,1017.95
2018-09-01T00:42:30.763Z,1017.94
2018-09-01T00:43:30.690Z,1017.98
2018-09-01T00:45:22.446Z,1017.96
2018-09-01T00:46:22.380Z,1017.99
2018-09-01T00:48:14.164Z,1018.01
2018-09-01T00:49:14.076Z,1018.01
2018-09-01T00:51:06.894Z,1018.07
2018-09-01T00:52:06.794Z,1018.04
2018-09-01T00:53:58.564Z,1018.11
2018-09-01T00:54:58.487Z,1018.17
2018-09-01T00:56:50.263Z,1018.20
2018-09-01T00:57:50.189Z,1018.18
2018-09-01T00:59:41.938Z,1018.19
2018-09-01T01:00:41.876Z,1018.17
2018-09-01T01:02:33.644Z,1018.20
2018-09-01T01:03:33.565Z,1018.19
2018-09-01T01:05:25.329Z,1018.22
2018-09-01T01:06:25.259Z,1018.23
2018-09-01T01:08:17.025Z,1018.23
2018-09-01T01:09:16.954Z,1018.31
2018-09-01T01:11:08.715Z,1018.35
2018-09-01T01:12:08.630Z,1018.29
2018-09-01T01:14:00.461Z,1018.35
2018-09-01T01:15:00.394Z,1018.37
2018-09-01T01:16:52.150Z,1018.36
2018-09-01T01:17:52.075Z,1018.33
2018-09-01T01:19:44.839Z,1018.38
2018-09-01T01:20:44.779Z,1018.39
2018-09-01T01:22:37.556Z,1018.43
2018-09-01T01:23:37.475Z,1018.48
2018-09-01T01:25:30.232Z,1018.47
2018-09-01T01:26:30.168Z,1018.50
2018-09-01T01:28:22.950Z,1018.51
2018-09-01T01:29:22.868Z,1018.51
2018-09-01T01:31:15.690Z,1018.47
2018-09-01T01:32:15.590Z,1018.47
2018-09-01T01:34:08.388Z,1018.46
2018-09-01T01:35:08.300Z,1018.46
2018-09-01T01:37:01.073Z,1018.46
2018-09-01T01:38:00.995Z,1018.43
2018-09-01T01:39:53.767Z,1018.39
2018-09-01T01:40:53.696Z,1018.38
2018-09-01T01:42:46.477Z,1018.32
2018-09-01T01:43:46.403Z,1018.31
2018-09-01T01:45:39.176Z,1018.24
2018-09-01T01:46:39.106Z,1018.24
2018-09-01T01:48:31.910Z,1018.23
2018-09-01T01:49:31.822Z,1018.19
2018-09-01T01:51:24.576Z,1018.14
2018-09-01T01:52:24.522Z,1018.14
2018-09-01T01:54:17.292Z,1018.15
2018-09-01T01:55:17.221Z,1018.17
2018-09-01T01:57:09.085Z,1018.18
2018-09-01T01:58:09.005Z,1018.18
2018-09-01T02:00:01.764Z,1018.22
2018-09-01T02:01:01.694Z,1018.25
2018-09-01T02:02:54.529Z,1018.33
2018-09-01T02:03:54.409Z,1018.31
2018-09-01T02:05:47.182Z,1018.30
2018-09-01T02:06:47.107Z,1018.31
2018-09-01T02:08:39.878Z,1018.36
2018-09-01T02:09:39.801Z,1018.33
2018-09-01T02:11:32.561Z,1018.36
2018-09-01T02:12:32.498Z,1018.40
2018-09-01T02:14:25.277Z,1018.39
2018-09-01T02:15:25.198Z,1018.35
2018-09-01T02:17:17.058Z,1018.36
2018-09-01T02:18:16.979Z,1018.39
2018-09-01T02:20:09.737Z,1018.48
2018-09-01T02:21:09.691Z,1018.51
2018-09-01T02:23:02.466Z,1018.58
2018-09-01T02:24:02.369Z,1018.57
2018-09-01T02:25:54.255Z,1018.60
2018-09-01T02:26:54.190Z,1018.62
2018-09-01T02:28:47.062Z,1018.57
2018-09-01T02:29:46.925Z,1018.60
2018-09-01T02:31:39.723Z,1018.62
2018-09-01T02:32:39.662Z,1018.60
2018-09-01T02:34:32.466Z,1018.61
2018-09-01T02:35:32.405Z,1018.63
2018-09-01T02:37:25.181Z,1018.65
2018-09-01T02:38:25.118Z,1018.62
2018-09-01T02:40:17.878Z,1018.64
2018-09-01T02:41:17.812Z,1018.59
2018-09-01T02:43:10.593Z,1018.60
2018-09-01T02:44:10.500Z,1018.61
2018-09-01T02:46:03.266Z,1018.58
2018-09-01T02:47:03.204Z,1018.56
2018-09-01T02:48:55.970Z,1018.60
2018-09-01T02:49:55.907Z,1018.61
2018-09-01T02:51:48.660Z,1018.66
2018-09-01T02:52:48.581Z,1018.73
2018-09-01T02:54:41.371Z,1018.72
2018-09-01T02:55:41.328Z,1018.79
2018-09-01T02:57:34.074Z,1018.79
2018-09-01T02:58:33.997Z,1018.79
2018-09-01T03:00:26.750Z,1018.80
2018-09-01T03:01:26.689Z,1018.74
2018-09-01T03:03:19.470Z,1018.74
2018-09-01T03:04:19.410Z,1018.70
2018-09-01T03:06:12.178Z,1018.68
2018-09-01T03:07:12.233Z,1018.71
2018-09-01T03:09:04.865Z,1018.79
2018-09-01T03:10:04.777Z,1018.82
2018-09-01T03:11:57.548Z,1018.83
2018-09-01T03:12:57.482Z,1018.80
2018-09-01T03:14:50.296Z,1018.78
2018-09-01T03:15:50.193Z,1018.80
2018-09-01T03:17:42.968Z,1018.76
2018-09-01T03:18:42.905Z,1018.73
2018-09-01T03:20:34.679Z,1018.69
2018-09-01T03:21:34.624Z,1018.68
2018-09-01T03:23:27.388Z,1018.65
2018-09-01T03:24:27.311Z,1018.63
2018-09-01T03:26:20.091Z,1018.64
2018-09-01T03:27:20.008Z,1018.64
2018-09-01T03:29:11.909Z,1018.71
2018-09-01T03:30:11.811Z,1018.72
2018-09-01T03:32:04.588Z,1018.65
2018-09-01T03:33:04.515Z,1018.66
2018-09-01T03:34:57.304Z,1018.63
2018-09-01T03:35:57.220Z,1018.61
2018-09-01T03:37:50.004Z,1018.64
2018-09-01T03:38:49.920Z,1018.68
2018-09-01T03:40:42.690Z,1018.68
2018-09-01T03:41:42.683Z,1018.69
2018-09-01T03:43:35.401Z,1018.72
2018-09-01T03:44:35.336Z,1018.68
2018-09-01T03:46:28.110Z,1018.68
2018-09-01T03:47:28.028Z,1018.68
2018-09-01T03:49:20.800Z,1018.70
2018-09-01T03:50:20.716Z,1018.74
2018-09-01T03:52:13.486Z,1018.76
2018-09-01T03:53:13.411Z,1018.76
2018-09-01T03:55:06.199Z,1018.71
2018-09-01T03:56:06.119Z,1018.76
2018-09-01T03:57:58.907Z,1018.73
2018-09-01T03:58:58.829Z,1018.75
2018-09-01T04:00:51.748Z,1018.78
2018-09-01T04:01:51.552Z,1018.83
2018-09-01T04:03:44.322Z,1018.82
2018-09-01T04:04:44.237Z,1018.82
2018-09-01T04:06:37.030Z,1018.77
2018-09-01T04:07:36.962Z,1018.79
2018-09-01T04:09:28.870Z,1018.79
2018-09-01T04:10:28.802Z,1018.81
2018-09-01T04:12:21.627Z,1018.85
2018-09-01T04:13:21.515Z,1018.84
2018-09-01T04:15:14.282Z,1018.84
2018-09-01T04:16:14.203Z,1018.84
2018-09-01T04:18:06.998Z,1018.85
2018-09-01T04:19:06.926Z,1018.87
2018-09-01T04:20:59.714Z,1018.90
2018-09-01T04:21:59.644Z,1018.99
2018-09-01T04:23:52.411Z,1018.96
2018-09-01T04:24:52.334Z,1018.95
2018-09-01T04:26:44.308Z,1018.90
2018-09-01T04:27:44.251Z,1018.91
2018-09-01T04:29:36.153Z,1018.95
2018-09-01T04:30:36.059Z,1018.91
2018-09-01T04:32:28.829Z,1018.86
2018-09-01T04:33:28.762Z,1018.87
2018-09-01T04:35:20.718Z,1018.95
2018-09-01T04:36:20.631Z,1018.98
2018-09-01T04:38:12.509Z,1019.06
2018-09-01T04:39:12.387Z,1019.07
2018-09-01T04:41:04.189Z,1019.07
2018-09-01T04:42:04.099Z,1019.06
2018-09-01T04:43:56.903Z,1019.05
2018-09-01T04:44:56.853Z,1018.97
2018-09-01T04:46:49.611Z,1019.01
2018-09-01T04:47:49.539Z,1018.98
2018-09-01T04:49:42.339Z,1019.02
2018-09-01T04:50:42.229Z,1019.03
2018-09-01T04:52:35.009Z,1019.03
2018-09-01T04:53:34.944Z,1019.07
2018-09-01T04:55:26.904Z,1019.11
2018-09-01T04:56:26.782Z,1019.09
2018-09-01T04:58:19.552Z,1019.08
2018-09-01T04:59:19.477Z,1019.10
2018-09-01T05:01:12.484Z,1019.12
2018-09-01T05:02:12.174Z,1019.13
2018-09-01T05:04:04.987Z,1019.15
2018-09-01T05:05:04.898Z,1019.14
2018-09-01T05:06:57.671Z,1019.16
2018-09-01T05:07:57.594Z,1019.17
2018-09-01T05:09:50.488Z,1019.21
2018-09-01T05:10:50.398Z,1019.24
2018-09-01T05:12:43.208Z,1019.27
2018-09-01T05:13:43.094Z,1019.27
2018-09-01T05:15:35.918Z,1019.26
2018-09-01T05:16:35.829Z,1019.26
2018-09-01T05:18:27.649Z,1019.21
2018-09-01T05:19:27.543Z,1019.23
2018-09-01T05:21:20.364Z,1019.27
2018-09-01T05:22:20.283Z,1019.28
2018-09-01T05:24:12.087Z,1019.28
2018-09-01T05:25:11.968Z,1019.30
2018-09-01T05:27:04.841Z,1019.35
2018-09-01T05:28:04.848Z,1019.30
2018-09-01T05:29:57.494Z,1019.38
2018-09-01T05:30:57.403Z,1019.36
2018-09-01T05:32:50.185Z,1019.30
2018-09-01T05:33:50.117Z,1019.34
2018-09-01T05:35:42.914Z,1019.40
2018-09-01T05:36:42.957Z,1019.37
2018-09-01T05:38:35.599Z,1019.41
2018-09-01T05:39:35.537Z,1019.39
2018-09-01T05:41:27.342Z,1019.38
2018-09-01T05:42:27.274Z,1019.39
2018-09-01T05:44:20.064Z,1019.41
2018-09-01T05:45:19.983Z,1019.44
2018-09-01T05:47:12.765Z,1019.45
2018-09-01T05:48:12.692Z,1019.47
2018-09-01T05:50:05.502Z,1019.48
2018-09-01T05:51:05.431Z,1019.49
2018-09-01T05:52:57.177Z,1019.48
2018-09-01T05:53:57.107Z,1019.45
2018-09-01T05:55:48.934Z,1019.46
2018-09-01T05:56:48.808Z,1019.45
2018-09-01T05:58:40.575Z,1019.44
2018-09-01T05:59:40.516Z,1019.47
2018-09-01T06:01:33.343Z,1019.50
2018-09-01T06:02:33.238Z,1019.52
2018-09-01T06:04:26.092Z,1019.58
2018-09-01T06:05:26.018Z,1019.60
2018-09-01T06:07:17.937Z,1019.59
2018-09-01T06:08:17.875Z,1019.63
2018-09-01T06:10:10.652Z,1019.65
2018-09-01T06:11:10.579Z,1019.65
2018-09-01T06:13:03.373Z,1019.66
2018-09-01T06:14:03.331Z,1019.71
2018-09-01T06:15:56.097Z,1019.73
2018-09-01T06:16:56.000Z,1019.78
2018-09-01T06:18:48.797Z,1019.78
2018-09-01T06:19:48.731Z,1019.82
2018-09-01T06:21:40.549Z,1019.74
2018-09-01T06:22:40.471Z,1019.78
2018-09-01T06:24:33.257Z,1019.78
2018-09-01T06:25:33.191Z,1019.87
2018-09-01T06:27:25.980Z,1019.92
2018-09-01T06:28:25.888Z,1019.97
2018-09-01T06:30:18.817Z,1020.22
2018-09-01T06:31:18.609Z,1020.18
2018-09-01T06:33:11.416Z,1020.08
2018-09-01T06:34:11.347Z,1020.25
2018-09-01T06:36:04.162Z,1020.22
2018-09-01T06:37:04.113Z,1020.19
2018-09-01T06:38:56.870Z,1020.15
2018-09-01T06:39:56.804Z,1020.14
2018-09-01T06:41:49.641Z,1020.19
2018-09-01T06:42:49.521Z,1020.15
2018-09-01T06:44:42.370Z,1020.15
2018-09-01T06:45:42.251Z,1020.16
2018-09-01T06:47:35.113Z,1020.18
2018-09-01T06:48:35.034Z,1020.16
2018-09-01T06:50:27.870Z,1020.24
2018-09-01T06:51:27.798Z,1020.18
2018-09-01T06:53:20.599Z,1020.24
2018-09-01T06:54:20.529Z,1020.26
2018-09-01T06:56:13.356Z,1020.24
2018-09-01T06:57:13.281Z,1020.26
2018-09-01T06:59:06.094Z,1020.28
2018-09-01T07:00:06.003Z,1020.30
2018-09-01T07:01:58.800Z,1020.34
2018-09-01T07:02:58.720Z,1020.35
2018-09-01T07:04:51.536Z,1020.34
2018-09-01T07:05:51.477Z,1020.42
2018-09-01T07:07:44.294Z,1020.55
2018-09-01T07:08:44.296Z,1020.61
2018-09-01T07:10:37.105Z,1020.76
2018-09-01T07:11:36.970Z,1020.79
2018-09-01T07:13:30.252Z,1020.52
2018-09-01T07:14:30.205Z,1020.60
2018-09-01T07:16:23.018Z,1020.65
2018-09-01T07:17:22.905Z,1020.64
2018-09-01T07:19:15.734Z,1020.58
2018-09-01T07:20:15.683Z,1020.60
2018-09-01T07:22:08.466Z,1020.84
2018-09-01T07:23:08.404Z,1020.84
2018-09-01T07:25:01.245Z,1020.72
2018-09-01T07:26:01.240Z,1020.68
2018-09-01T07:27:53.955Z,1020.97
2018-09-01T07:28:53.950Z,1020.91
2018-09-01T07:30:47.020Z,1020.98
2018-09-01T07:31:46.693Z,1020.99
2018-09-01T07:33:39.542Z,1020.94
2018-09-01T07:34:39.473Z,1020.92
2018-09-01T07:36:32.310Z,1020.84
2018-09-01T07:37:32.250Z,1020.84
2018-09-01T07:39:25.064Z,1020.87
2018-09-01T07:40:24.977Z,1020.91
2018-09-01T07:42:17.804Z,1020.91
2018-09-01T07:43:17.728Z,1020.84
2018-09-01T07:45:10.539Z,1020.91
2018-09-01T07:46:10.465Z,1020.89
2018-09-01T07:48:03.259Z,1020.88
2018-09-01T07:49:03.197Z,1020.87
2018-09-01T07:50:56.020Z,1020.88
2018-09-01T07:51:55.924Z,1020.86
2018-09-01T07:53:48.716Z,1020.78
2018-09-01T07:54:48.665Z,1020.74
2018-09-01T07:56:41.500Z,1020.82
2018-09-01T07:57:41.408Z,1020.90
2018-09-01T07:59:34.207Z,1020.93
2018-09-01T08:00:34.139Z,1020.93
2018-09-01T08:02:27.070Z,1020.89
2018-09-01T08:03:26.926Z,1020.85
2018-09-01T08:05:19.815Z,1020.84
2018-09-01T08:06:19.710Z,1020.89
2018-09-01T08:08:12.477Z,1020.80
2018-09-01T08:09:12.426Z,1020.84
2018-09-01T08:11:05.348Z,1020.84
2018-09-01T08:12:05.185Z,1020.88
2018-09-01T08:13:58.220Z,1020.85
2018-09-01T08:14:57.986Z,1020.87
2018-09-01T08:16:50.897Z,1020.89
2018-09-01T08:17:50.833Z,1020.90
2018-09-01T08:19:43.673Z,1020.90
2018-09-01T08:20:43.610Z,1020.92
2018-09-01T08:22:36.447Z,1020.90
2018-09-01T08:23:36.359Z,1020.88
2018-09-01T08:25:29.260Z,1020.95
2018-09-01T08:26:29.186Z,1020.94
2018-09-01T08:28:22.012Z,1021.03
2018-09-01T08:29:21.934Z,1021.02
2018-09-01T08:31:14.766Z,1021.01
2018-09-01T08:32:14.780Z,1021.05
2018-09-01T08:34:07.483Z,1021.08
2018-09-01T08:35:07.458Z,1021.16
2018-09-01T08:37:00.276Z,1021.15
2018-09-01T08:38:00.197Z,1021.13
2018-09-01T08:39:52.961Z,1021.10
2018-09-01T08:40:52.915Z,1021.10
2018-09-01T08:42:45.735Z,1021.06
2018-09-01T08:43:45.662Z,1021.06
2018-09-01T08:45:38.458Z,1021.09
2018-09-01T08:46:38.413Z,1021.11
2018-09-01T08:48:30.268Z,1021.09
2018-09-01T08:49:30.216Z,1021.11
2018-09-01T08:51:23.063Z,1021.05
2018-09-01T08:52:22.995Z,1021.03
2018-09-01T08:54:15.808Z,1020.98
2018-09-01T08:55:15.767Z,1020.99
2018-09-01T08:57:08.594Z,1020.99
2018-09-01T08:58:08.520Z,1021.00
2018-09-01T09:00:01.339Z,1020.99
2018-09-01T09:01:01.280Z,1020.98
2018-09-01T09:02:54.139Z,1021.00
2018-09-01T09:03:54.074Z,1020.98
2018-09-01T09:05:46.914Z,1021.03
2018-09-01T09:06:46.844Z,1021.03
2018-09-01T09:08:39.749Z,1021.04
2018-09-01T09:09:39.640Z,1021.02
2018-09-01T09:11:32.502Z,1021.04
2018-09-01T09:12:32.392Z,1021.03
2018-09-01T09:14:25.222Z,1021.09
2018-09-01T09:15:25.155Z,1021.11
2018-09-01T09:17:18.021Z,1021.08
2018-09-01T09:18:17.929Z,1021.13
2018-09-01T09:20:10.737Z,1021.18
2018-09-01T09:21:10.648Z,1021.17
2018-09-01T09:23:03.448Z,1021.16
2018-09-01T09:24:03.369Z,1021.18
2018-09-01T09:25:56.171Z,1021.12
2018-09-01T09:26:56.118Z,1021.09
2018-09-01T09:28:48.929Z,1021.13
2018-09-01T09:29:48.881Z,1021.12
2018-09-01T09:31:41.679Z,1021.04
2018-09-01T09:32:41.608Z,1021.09
2018-09-01T09:34:34.514Z,1021.06
2018-09-01T09:35:34.369Z,1021.03
2018-09-01T09:37:27.196Z,1021.02
2018-09-01T09:38:27.116Z,1021.02
2018-09-01T09:40:20.024Z,1021.03
2018-09-01T09:41:19.929Z,1021.03
2018-09-01T09:43:12.730Z,1021.02
2018-09-01T09:44:12.728Z,1021.03
2018-09-01T09:46:05.485Z,1021.03
2018-09-01T09:47:05.477Z,1021.03
2018-09-01T09:48:58.269Z,1021.04
2018-09-01T09:49:58.214Z,1021.04
2018-09-01T09:51:51.038Z,1020.98
2018-09-01T09:52:51.011Z,1020.98
2018-09-01T09:54:43.823Z,1020.96
2018-09-01T09:55:43.752Z,1020.96
2018-09-01T09:57:36.658Z,1021.01
2018-09-01T09:58:36.612Z,1020.95
2018-09-01T10:00:29.451Z,1020.92
2018-09-01T10:01:29.366Z,1020.93
2018-09-01T10:03:22.193Z,1020.88
2018-09-01T10:04:22.111Z,1020.90
2018-09-01T10:06:14.975Z,1020.87
2018-09-01T10:07:14.884Z,1020.86
2018-09-01T10:09:07.670Z,1020.87
2018-09-01T10:10:07.617Z,1020.88
2018-09-01T10:12:00.430Z,1020.86
2018-09-01T10:13:00.365Z,1020.86
2018-09-01T10:14:53.163Z,1020.81
2018-09-01T10:15:53.162Z,1020.84
2018-09-01T10:17:45.896Z,1020.85
2018-09-01T10:18:45.831Z,1020.81
2018-09-01T10:20:38.744Z,1020.87
2018-09-01T10:21:38.597Z,1020.88
2018-09-01T10:23:31.447Z,1020.90
2018-09-01T10:24:31.330Z,1020.91
2018-09-01T10:26:24.114Z,1020.89
2018-09-01T10:27:24.071Z,1020.92
2018-09-01T10:29:17.012Z,1020.87
2018-09-01T10:30:16.784Z,1020.92
2018-09-01T10:32:09.625Z,1020.83
2018-09-01T10:33:09.520Z,1020.90
2018-09-01T10:35:02.337Z,1020.87
2018-09-01T10:36:02.315Z,1020.85
2018-09-01T10:37:55.181Z,1020.85
2018-09-01T10:38:55.098Z,1020.85
2018-09-01T10:40:47.922Z,1020.84
2018-09-01T10:41:47.853Z,1020.85
2018-09-01T10:43:40.734Z,1020.84
2018-09-01T10:44:40.615Z,1020.82
2018-09-01T10:46:33.417Z,1020.82
2018-09-01T10:47:33.348Z,1020.82
2018-09-01T10:49:26.157Z,1020.80
2018-09-01T10:50:26.089Z,1020.80
2018-09-01T10:52:18.961Z,1020.78
2018-09-01T10:53:18.845Z,1020.79
2018-09-01T10:55:11.719Z,1020.75
2018-09-01T10:56:11.596Z,1020.74
2018-09-01T10:58:04.493Z,1020.74
2018-09-01T10:59:04.689Z,1020.75
2018-09-01T11:00:57.228Z,1020.69
2018-09-01T11:01:57.216Z,1020.74
2018-09-01T11:03:50.034Z,1020.75
2018-09-01T11:04:49.914Z,1020.72
2018-09-01T11:06:42.706Z,1020.78
2018-09-01T11:07:42.690Z,1020.74
2018-09-01T11:09:34.646Z,1020.71
2018-09-01T11:10:34.559Z,1020.72
2018-09-01T11:12:27.414Z,1020.76
2018-09-01T11:13:27.282Z,1020.76
2018-09-01T11:15:20.108Z,1020.78
2018-09-01T11:16:20.025Z,1020.80
2018-09-01T11:18:12.858Z,1020.81
2018-09-01T11:19:12.760Z,1020.82
2018-09-01T11:21:05.599Z,1020.77
2018-09-01T11:22:05.530Z,1020.74
2018-09-01T11:23:58.475Z,1020.74
2018-09-01T11:24:58.327Z,1020.75
2018-09-01T11:26:51.099Z,1020.80
2018-09-01T11:27:51.128Z,1020.81
2018-09-01T11:29:44.139Z,1020.83
2018-09-01T11:30:43.993Z,1020.82
2018-09-01T11:32:36.828Z,1020.81
2018-09-01T11:33:36.745Z,1020.84
2018-09-01T11:35:29.534Z,1020.78
2018-09-01T11:36:29.495Z,1020.80
2018-09-01T11:38:22.313Z,1020.82
2018-09-01T11:39:22.247Z,1020.73
2018-09-01T11:41:15.063Z,1020.71
2018-09-01T11:42:14.993Z,1020.74
2018-09-01T11:44:07.810Z,1020.79
2018-09-01T11:45:07.748Z,1020.83
2018-09-01T11:47:00.514Z,1020.84
2018-09-01T11:48:00.462Z,1020.79
2018-09-01T11:49:53.347Z,1020.80
2018-09-01T11:50:53.236Z,1020.85
2018-09-01T11:52:46.035Z,1020.84
2018-09-01T11:53:45.984Z,1020.85
2018-09-01T11:55:38.994Z,1020.80
2018-09-01T11:56:38.717Z,1020.76
2018-09-01T11:58:31.723Z,1020.73
2018-09-01T11:59:31.443Z,1020.75
2018-09-01T12:01:24.283Z,1020.76
2018-09-01T12:02:24.224Z,1020.75
2018-09-01T12:04:17.012Z,1020.74
2018-09-01T12:05:16.950Z,1020.75
2018-09-01T12:07:09.761Z,1020.73
2018-09-01T12:08:09.689Z,1020.71
2018-09-01T12:10:02.495Z,1020.75
2018-09-01T12:11:02.452Z,1020.74
2018-09-01T12:12:55.294Z,1020.72
2018-09-01T12:13:55.233Z,1020.69
2018-09-01T12:15:48.043Z,1020.64
2018-09-01T12:16:47.877Z,1020.66
2018-09-01T12:18:40.695Z,1020.61
2018-09-01T12:19:40.593Z,1020.62
2018-09-01T12:21:33.488Z,1020.59
2018-09-01T12:22:33.410Z,1020.62
2018-09-01T12:24:26.252Z,1020.58
2018-09-01T12:25:26.146Z,1020.58
2018-09-01T12:27:18.986Z,1020.57
2018-09-01T12:28:19.016Z,1020.56
2018-09-01T12:30:11.723Z,1020.55
2018-09-01T12:31:11.649Z,1020.54
2018-09-01T12:33:04.511Z,1020.53
2018-09-01T12:34:04.404Z,1020.58
2018-09-01T12:35:57.283Z,1020.57
2018-09-01T12:36:57.204Z,1020.52
2018-09-01T12:38:50.002Z,1020.44
2018-09-01T12:39:49.925Z,1020.46
2018-09-01T12:41:42.828Z,1020.43
2018-09-01T12:42:42.761Z,1020.41
2018-09-01T12:44:34.797Z,1020.35
2018-09-01T12:45:34.674Z,1020.40
2018-09-01T12:47:27.478Z,1020.37
2018-09-01T12:48:27.381Z,1020.38
2018-09-01T12:50:20.211Z,1020.37
2018-09-01T12:51:20.137Z,1020.36
2018-09-01T12:53:13.029Z,1020.37
2018-09-01T12:54:12.896Z,1020.31
2018-09-01T12:56:05.721Z,1020.30
2018-09-01T12:57:05.644Z,1020.29
2018-09-01T12:58:58.467Z,1020.27
2018-09-01T12:59:58.395Z,1020.29
2018-09-01T13:01:51.222Z,1020.25
2018-09-01T13:02:51.135Z,1020.27
2018-09-01T13:04:43.985Z,1020.29
2018-09-01T13:05:43.885Z,1020.35
2018-09-01T13:07:36.686Z,1020.33
2018-09-01T13:08:36.626Z,1020.31
2018-09-01T13:10:29.461Z,1020.33
2018-09-01T13:11:29.363Z,1020.32
2018-09-01T13:13:22.152Z,1020.28
2018-09-01T13:14:22.085Z,1020.29
2018-09-01T13:16:14.905Z,1020.35
2018-09-01T13:17:14.827Z,1020.37
2018-09-01T13:19:07.759Z,1020.37
2018-09-01T13:20:07.668Z,1020.39
2018-09-01T13:22:00.441Z,1020.42
2018-09-01T13:23:00.445Z,1020.38
2018-09-01T13:24:53.220Z,1020.42
2018-09-01T13:25:53.190Z,1020.43
2018-09-01T13:27:45.957Z,1020.42
2018-09-01T13:28:45.909Z,1020.40
2018-09-01T13:30:38.757Z,1020.44
2018-09-01T13:31:38.649Z,1020.41
2018-09-01T13:33:31.494Z,1020.40
2018-09-01T13:34:31.508Z,1020.40
2018-09-01T13:36:24.268Z,1020.42
2018-09-01T13:37:24.215Z,1020.41
2018-09-01T13:39:16.962Z,1020.40
2018-09-01T13:40:16.924Z,1020.38
2018-09-01T13:42:09.798Z,1020.35
2018-09-01T13:43:09.745Z,1020.37
2018-09-01T13:45:02.551Z,1020.36
2018-09-01T13:46:02.528Z,1020.38
2018-09-01T13:47:55.376Z,1020.36
2018-09-01T13:48:55.362Z,1020.36
2018-09-01T13:50:48.128Z,1020.36
2018-09-01T13:51:48.075Z,1020.37
2018-09-01T13:53:40.866Z,1020.38
2018-09-01T13:54:40.793Z,1020.39
2018-09-01T13:56:32.764Z,1020.43
2018-09-01T13:57:32.851Z,1020.40
2018-09-01T13:59:25.585Z,1020.42
2018-09-01T14:00:25.579Z,1020.40
2018-09-01T14:02:18.290Z,1020.36
2018-09-01T14:03:18.209Z,1020.38
2018-09-01T14:05:11.019Z,1020.38
2018-09-01T14:06:10.941Z,1020.40
2018-09-01T14:08:03.762Z,1020.40
2018-09-01T14:09:03.668Z,1020.40
2018-09-01T14:10:56.592Z,1020.39
2018-09-01T14:11:56.453Z,1020.42
2018-09-01T14:13:49.306Z,1020.44
2018-09-01T14:14:49.417Z,1020.45
2018-09-01T14:16:42.218Z,1020.41
2018-09-01T14:17:41.985Z,1020.40
2018-09-01T14:19:33.892Z,1020.39
2018-09-01T14:20:33.800Z,1020.37
2018-09-01T14:22:26.650Z,1020.37
2018-09-01T14:23:26.572Z,1020.34
2018-09-01T14:25:19.394Z,1020.33
2018-09-01T14:26:19.314Z,1020.31
2018-09-01T14:28:12.118Z,1020.31
2018-09-01T14:29:12.056Z,1020.33
2018-09-01T14:31:04.846Z,1020.33
2018-09-01T14:32:04.776Z,1020.33
2018-09-01T14:33:56.656Z,1020.33
2018-09-01T14:34:56.585Z,1020.37
2018-09-01T14:36:49.395Z,1020.42
2018-09-01T14:37:49.303Z,1020.43
2018-09-01T14:39:42.176Z,1020.41
2018-09-01T14:40:42.072Z,1020.38
2018-09-01T14:42:34.893Z,1020.39
2018-09-01T14:43:34.801Z,1020.42
2018-09-01T14:45:27.600Z,1020.38
2018-09-01T14:46:27.544Z,1020.37
2018-09-01T14:48:20.418Z,1020.36
2018-09-01T14:49:20.276Z,1020.38
2018-09-01T14:51:13.070Z,1020.38
2018-09-01T14:52:13.000Z,1020.37
2018-09-01T14:54:06.050Z,1020.34
2018-09-01T14:55:05.977Z,1020.31
2018-09-01T14:56:58.786Z,1020.34
2018-09-01T14:57:58.719Z,1020.31
2018-09-01T14:59:51.555Z,1020.30
2018-09-01T15:00:51.451Z,1020.31
2018-09-01T15:02:44.221Z,1020.33
2018-09-01T15:03:44.165Z,1020.38
2018-09-01T15:05:36.971Z,1020.36
2018-09-01T15:06:36.920Z,1020.36
2018-09-01T15:08:29.701Z,1020.40
2018-09-01T15:09:29.632Z,1020.37
2018-09-01T15:11:22.435Z,1020.35
2018-09-01T15:12:22.348Z,1020.40
2018-09-01T15:14:15.131Z,1020.40
2018-09-01T15:15:15.064Z,1020.40
2018-09-01T15:17:07.901Z,1020.39
2018-09-01T15:18:07.821Z,1020.39
2018-09-01T15:20:00.628Z,1020.40
2018-09-01T15:21:00.533Z,1020.44
2018-09-01T15:22:53.369Z,1020.42
2018-09-01T15:23:53.409Z,1020.40
2018-09-01T15:25:46.102Z,1020.45
2018-09-01T15:26:46.024Z,1020.43
2018-09-01T15:28:38.925Z,1020.39
2018-09-01T15:29:38.779Z,1020.41
2018-09-01T15:31:31.584Z,1020.37
2018-09-01T15:32:31.541Z,1020.43
2018-09-01T15:34:24.317Z,1020.40
2018-09-01T15:35:24.344Z,1020.40
2018-09-01T15:37:17.015Z,1020.45
2018-09-01T15:38:16.933Z,1020.47
2018-09-01T15:40:09.710Z,1020.43
2018-09-01T15:41:09.648Z,1020.41
2018-09-01T15:43:01.526Z,1020.44
2018-09-01T15:44:01.439Z,1020.45
2018-09-01T15:45:54.288Z,1020.45
2018-09-01T15:46:54.188Z,1020.47
2018-09-01T15:48:46.979Z,1020.45
2018-09-01T15:49:46.940Z,1020.47
2018-09-01T15:51:39.748Z,1020.48
2018-09-01T15:52:39.655Z,1020.48
2018-09-01T15:54:32.542Z,1020.46
2018-09-01T15:55:32.467Z,1020.51
2018-09-01T15:57:25.347Z,1020.49
2018-09-01T15:58:25.206Z,1020.49
2018-09-01T16:00:18.085Z,1020.52
2018-09-01T16:01:18.020Z,1020.54
2018-09-01T16:03:10.944Z,1020.51
2018-09-01T16:04:10.849Z,1020.51
2018-09-01T16:06:03.635Z,1020.47
2018-09-01T16:07:03.555Z,1020.46
2018-09-01T16:08:56.425Z,1020.54
2018-09-01T16:09:56.363Z,1020.52
2018-09-01T16:11:49.377Z,1020.52
2018-09-01T16:12:49.127Z,1020.56
2018-09-01T16:14:41.963Z,1020.55
2018-09-01T16:15:41.872Z,1020.57
2018-09-01T16:17:34.693Z,1020.58
2018-09-01T16:18:34.621Z,1020.57
2018-09-01T16:20:27.391Z,1020.57
2018-09-01T16:21:27.357Z,1020.59
2018-09-01T16:23:20.158Z,1020.57
2018-09-01T16:24:20.065Z,1020.60
2018-09-01T16:26:12.893Z,1020.60
2018-09-01T16:27:12.916Z,1020.57
2018-09-01T16:29:05.616Z,1020.59
2018-09-01T16:30:05.566Z,1020.56
2018-09-01T16:31:58.358Z,1020.54
2018-09-01T16:32:58.299Z,1020.57
2018-09-01T16:34:51.099Z,1020.58
2018-09-01T16:35:50.998Z,1020.59
2018-09-01T16:37:43.897Z,1020.59
2018-09-01T16:38:43.783Z,1020.61
2018-09-01T16:40:36.588Z,1020.58
2018-09-01T16:41:36.500Z,1020.61
2018-09-01T16:43:29.229Z,1020.63
2018-09-01T16:44:29.157Z,1020.62
2018-09-01T16:46:21.956Z,1020.64
2018-09-01T16:47:21.883Z,1020.67
2018-09-01T16:49:14.708Z,1020.62
2018-09-01T16:50:14.627Z,1020.58
2018-09-01T16:52:07.661Z,1020.64
2018-09-01T16:53:07.477Z,1020.61
2018-09-01T16:55:00.356Z,1020.65
2018-09-01T16:56:00.191Z,1020.66
2018-09-01T16:57:52.059Z,1020.68
2018-09-01T16:58:51.936Z,1020.65
2018-09-01T17:00:44.920Z,1020.62
2018-09-01T17:01:44.768Z,1020.64
2018-09-01T17:03:37.698Z,1020.67
2018-09-01T17:04:37.579Z,1020.67
2018-09-01T17:06:30.372Z,1020.72
2018-09-01T17:07:30.288Z,1020.73
2018-09-01T17:09:23.120Z,1020.77
2018-09-01T17:10:23.026Z,1020.74
2018-09-01T17:12:15.958Z,1020.75
2018-09-01T17:13:15.771Z,1020.79
2018-09-01T17:15:08.592Z,1020.78
2018-09-01T17:16:08.513Z,1020.81
2018-09-01T17:18:01.436Z,1020.87
2018-09-01T17:19:01.268Z,1020.84
2018-09-01T17:20:54.733Z,1020.83
2018-09-01T17:21:54.085Z,1020.88
2018-09-01T17:23:46.947Z,1020.90